createdAt,value
2019-04-06T00:00:13.808Z,46.70
2019-04-06T00:02:45.823Z,57.83
2019-04-06T00:05:17.248Z,49.03
2019-04-06T00:07:49.657Z,48.43
2019-04-06T00:10:22.296Z,47.57
2019-04-06T00:12:56.605Z,46.20
2019-04-06T00:15:29.194Z,41.47
2019-04-06T00:18:00.745Z,47.90
2019-04-06T00:20:33.650Z,51.33
2019-04-06T00:23:05.093Z,43.47
2019-04-06T00:25:44.194Z,41.30
2019-04-06T00:28:12.304Z,49.23
2019-04-06T00:30:48.080Z,45.70
2019-04-06T00:33:23.949Z,45.87
2019-04-06T00:35:57.703Z,41.97
2019-04-06T00:38:29.267Z,41.70
2019-04-06T00:41:02.140Z,38.50
2019-04-06T00:43:33.593Z,51.20
2019-04-06T00:46:05.063Z,43.83
2019-04-06T00:48:36.495Z,45.30
2019-04-06T00:51:07.958Z,39.23
2019-04-06T00:53:39.400Z,44.47
2019-04-06T00:56:10.854Z,48.73
2019-04-06T00:58:42.297Z,40.87
2019-04-06T01:01:14.984Z,39.87
2019-04-06T01:03:46.429Z,41.30
2019-04-06T01:06:19.103Z,44.87
2019-04-06T01:08:51.787Z,45.17
2019-04-06T01:11:24.467Z,43.80
2019-04-06T01:13:57.163Z,39.80
2019-04-06T01:16:28.594Z,37.93
2019-04-06T01:19:00.124Z,37.50
2019-04-06T01:21:32.733Z,43.67
2019-04-06T01:24:05.409Z,42.77
2019-04-06T01:26:38.086Z,31.10
2019-04-06T01:29:10.776Z,32.37
2019-04-06T01:31:43.446Z,33.63
2019-04-06T01:34:16.130Z,37.80
2019-04-06T01:36:48.811Z,40.70
2019-04-06T01:39:21.489Z,36.90
2019-04-06T01:41:54.171Z,33.03
2019-04-06T01:44:25.703Z,39.43
2019-04-06T01:46:58.308Z,36.83
2019-04-06T01:49:30.989Z,37.60
2019-04-06T01:52:03.666Z,40.57
2019-04-06T01:54:36.350Z,39.33
2019-04-06T01:57:07.785Z,37.77
2019-04-06T01:59:40.473Z,37.70
2019-04-06T02:02:20.737Z,35.07
2019-04-06T02:04:53.522Z,39.63
2019-04-06T02:07:26.189Z,37.90
2019-04-06T02:09:58.891Z,40.97
2019-04-06T02:12:31.870Z,41.37
2019-04-06T02:15:04.349Z,40.20
2019-04-06T02:17:35.693Z,34.23
2019-04-06T02:20:08.437Z,41.67
2019-04-06T02:22:41.063Z,37.80
2019-04-06T02:25:12.495Z,36.07
2019-04-06T02:27:45.186Z,37.37
2019-04-06T02:30:23.903Z,38.30
2019-04-06T02:32:58.462Z,34.67
2019-04-06T02:35:30.676Z,39.80
2019-04-06T02:38:08.167Z,37.37
2019-04-06T02:40:57.679Z,35.50
2019-04-06T02:43:32.103Z,35.10
2019-04-06T02:46:03.581Z,32.03
2019-04-06T02:48:36.936Z,35.47
2019-04-06T02:51:08.848Z,42.27
2019-04-06T02:53:41.491Z,43.90
2019-04-06T02:56:12.918Z,35.30
2019-04-06T02:58:45.824Z,37.07
2019-04-06T03:01:18.281Z,36.83
2019-04-06T03:03:51.037Z,35.20
2019-04-06T03:06:23.764Z,39.00
2019-04-06T03:08:57.879Z,40.33
2019-04-06T03:11:30.548Z,35.47
2019-04-06T03:14:04.336Z,34.90
2019-04-06T03:16:37.120Z,33.60
2019-04-06T03:19:10.735Z,37.73
2019-04-06T03:21:43.410Z,37.33
2019-04-06T03:24:16.120Z,37.13
2019-04-06T03:27:00.694Z,33.13
2019-04-06T03:29:23.328Z,37.83
2019-04-06T03:31:56.280Z,41.47
2019-04-06T03:34:29.301Z,36.17
2019-04-06T03:37:02.277Z,34.47
2019-04-06T03:39:34.931Z,47.23
2019-04-06T03:42:10.428Z,50.80
2019-04-06T03:44:40.947Z,40.13
2019-04-06T03:47:12.362Z,38.57
2019-04-06T03:49:45.038Z,35.83
2019-04-06T03:52:16.563Z,43.67
2019-04-06T03:54:50.538Z,44.93
2019-04-06T03:57:23.698Z,39.87
2019-04-06T03:59:56.375Z,39.17
2019-04-06T04:02:29.380Z,52.17
2019-04-06T04:05:00.826Z,36.20
2019-04-06T04:07:33.840Z,38.07
2019-04-06T04:10:07.213Z,44.10
2019-04-06T04:12:39.771Z,37.97
2019-04-06T04:15:12.795Z,45.23
2019-04-06T04:17:45.452Z,36.77
2019-04-06T04:20:16.916Z,38.13
2019-04-06T04:22:49.879Z,39.53
2019-04-06T04:25:22.570Z,52.13
2019-04-06T04:27:56.469Z,168.73
2019-04-06T04:30:32.873Z,117.17
2019-04-06T04:33:04.763Z,138.97
2019-04-06T04:35:37.666Z,40.50
2019-04-06T04:38:10.392Z,46.73
2019-04-06T04:40:43.269Z,39.37
2019-04-06T04:43:14.710Z,38.57
2019-04-06T04:45:47.472Z,40.80
2019-04-06T04:48:21.122Z,34.07
2019-04-06T04:50:54.284Z,36.83
2019-04-06T04:53:27.886Z,43.43
2019-04-06T04:56:00.594Z,38.90
2019-04-06T04:58:32.025Z,34.97
2019-04-06T05:01:03.485Z,33.23
2019-04-06T05:03:34.916Z,34.03
2019-04-06T05:06:07.603Z,33.07
2019-04-06T05:08:40.415Z,39.40
2019-04-06T05:11:13.271Z,37.23
2019-04-06T05:13:45.946Z,36.30
2019-04-06T05:16:18.756Z,34.73
2019-04-06T05:18:51.604Z,34.03
2019-04-06T05:21:26.733Z,41.13
2019-04-06T05:23:59.419Z,38.47
2019-04-06T05:26:37.413Z,40.43
2019-04-06T05:29:06.732Z,34.57
2019-04-06T05:31:39.343Z,38.07
2019-04-06T05:34:11.688Z,33.07
2019-04-06T05:36:44.410Z,33.57
2019-04-06T05:39:16.737Z,38.27
2019-04-06T05:41:50.781Z,41.17
2019-04-06T05:44:24.557Z,38.07
2019-04-06T05:46:56.107Z,33.90
2019-04-06T05:49:28.690Z,35.00
2019-04-06T05:52:01.379Z,29.17
2019-04-06T05:54:32.820Z,39.43
2019-04-06T05:57:05.687Z,33.47
2019-04-06T05:59:40.924Z,34.77
2019-04-06T06:02:13.041Z,39.30
2019-04-06T06:04:44.467Z,34.47
2019-04-06T06:07:15.934Z,29.10
2019-04-06T06:09:47.389Z,31.53
2019-04-06T06:12:18.855Z,29.40
2019-04-06T06:14:50.290Z,28.77
2019-04-06T06:17:21.747Z,35.53
2019-04-06T06:19:53.184Z,37.87
2019-04-06T06:22:24.987Z,31.57
2019-04-06T06:24:56.781Z,28.63
2019-04-06T06:27:29.408Z,33.47
2019-04-06T06:30:01.043Z,29.00
2019-04-06T06:32:32.915Z,34.37
2019-04-06T06:35:05.696Z,32.40
2019-04-06T06:37:37.211Z,32.63
2019-04-06T06:40:13.159Z,36.00
2019-04-06T06:42:46.080Z,31.87
2019-04-06T06:45:18.445Z,33.13
2019-04-06T06:47:49.914Z,36.87
2019-04-06T06:50:21.349Z,30.43
2019-04-06T06:52:52.815Z,29.13
2019-04-06T06:55:26.535Z,29.27
2019-04-06T06:57:57.311Z,33.63
2019-04-06T07:00:28.746Z,30.07
2019-04-06T07:03:01.386Z,34.70
2019-04-06T07:05:32.884Z,36.03
2019-04-06T07:08:05.515Z,37.00
2019-04-06T07:10:36.981Z,35.33
2019-04-06T07:13:08.429Z,29.80
2019-04-06T07:15:39.899Z,31.03
2019-04-06T07:18:11.329Z,32.13
2019-04-06T07:20:43.256Z,36.13
2019-04-06T07:23:16.061Z,29.20
2019-04-06T07:25:56.868Z,35.90
2019-04-06T07:28:20.866Z,25.40
2019-04-06T07:30:53.467Z,31.80
2019-04-06T07:33:26.163Z,34.40
2019-04-06T07:35:58.527Z,29.03
2019-04-06T07:38:31.557Z,24.57
2019-04-06T07:41:10.425Z,34.30
2019-04-06T07:43:49.924Z,32.37
2019-04-06T07:46:21.836Z,33.30
2019-04-06T07:49:07.468Z,29.60
2019-04-06T07:51:29.697Z,35.90
2019-04-06T07:54:02.850Z,27.90
2019-04-06T07:56:35.756Z,29.53
2019-04-06T07:59:07.416Z,34.80
2019-04-06T08:01:38.945Z,28.27
2019-04-06T08:04:10.407Z,29.37
2019-04-06T08:06:44.862Z,33.47
2019-04-06T08:09:16.766Z,31.27
2019-04-06T08:11:50.368Z,28.27
2019-04-06T08:14:23.690Z,29.00
2019-04-06T08:16:56.556Z,32.10
2019-04-06T08:19:30.801Z,33.60
2019-04-06T08:22:05.852Z,32.80
2019-04-06T08:24:37.287Z,26.43
2019-04-06T08:27:08.938Z,30.90
2019-04-06T08:29:41.827Z,24.90
2019-04-06T08:32:15.456Z,30.83
2019-04-06T08:34:46.774Z,32.93
2019-04-06T08:37:18.403Z,31.00
2019-04-06T08:39:52.892Z,40.67
2019-04-06T08:42:26.761Z,26.40
2019-04-06T08:44:58.307Z,27.43
2019-04-06T08:47:30.393Z,31.70
2019-04-06T08:50:07.642Z,44.17
2019-04-06T08:52:39.467Z,27.37
2019-04-06T08:55:16.933Z,28.60
2019-04-06T08:57:54.836Z,33.13
2019-04-06T09:00:26.371Z,25.63
2019-04-06T09:02:58.740Z,26.80
2019-04-06T09:05:30.492Z,25.33
2019-04-06T09:08:03.811Z,24.53
2019-04-06T09:10:35.791Z,26.23
2019-04-06T09:13:08.892Z,23.83
2019-04-06T09:15:40.772Z,29.07
2019-04-06T09:18:13.842Z,25.07
2019-04-06T09:20:49.076Z,29.37
2019-04-06T09:23:22.235Z,28.73
2019-04-06T09:25:53.844Z,24.13
2019-04-06T09:28:25.597Z,27.00
2019-04-06T09:31:00.006Z,28.10
2019-04-06T09:33:33.087Z,26.60
2019-04-06T09:36:06.407Z,33.67
2019-04-06T09:38:38.704Z,27.30
2019-04-06T09:41:12.024Z,29.17
2019-04-06T09:43:43.795Z,23.43
2019-04-06T09:46:20.837Z,30.37
2019-04-06T09:48:54.897Z,33.17
2019-04-06T09:51:32.355Z,26.10
2019-04-06T09:54:21.952Z,25.83
2019-04-06T09:56:57.596Z,22.30
2019-04-06T09:59:40.961Z,27.20
2019-04-06T10:02:31.659Z,34.13
2019-04-06T10:05:07.817Z,27.30
2019-04-06T10:07:59.074Z,23.00
2019-04-06T10:10:31.782Z,26.00
2019-04-06T10:13:18.850Z,24.40
2019-04-06T10:16:07.230Z,23.50
2019-04-06T10:18:57.953Z,31.77
2019-04-06T10:21:47.724Z,32.27
2019-04-06T10:24:37.951Z,26.17
2019-04-06T10:27:38.584Z,32.60
2019-04-06T10:30:31.654Z,27.83
2019-04-06T10:33:23.398Z,23.87
2019-04-06T10:35:57.073Z,27.07
2019-04-06T10:38:51.411Z,23.50
2019-04-06T10:41:42.153Z,31.80
2019-04-06T10:44:21.594Z,28.47
2019-04-06T10:46:57.640Z,27.67
2019-04-06T10:49:41.211Z,28.00
2019-04-06T10:52:18.783Z,26.70
2019-04-06T10:55:09.301Z,23.97
2019-04-06T10:58:00.779Z,25.93
2019-04-06T11:00:34.259Z,23.90
2019-04-06T11:03:17.388Z,25.90
2019-04-06T11:06:09.995Z,21.03
2019-04-06T11:08:53.468Z,25.63
2019-04-06T11:11:32.540Z,27.13
2019-04-06T11:14:22.131Z,20.87
2019-04-06T11:17:05.164Z,22.20
2019-04-06T11:19:53.499Z,25.30
2019-04-06T11:22:26.832Z,25.47
2019-04-06T11:25:00.415Z,29.47
2019-04-06T11:27:49.913Z,29.50
2019-04-06T11:30:39.505Z,24.00
2019-04-06T11:33:21.709Z,22.13
2019-04-06T11:36:01.857Z,24.60
2019-04-06T11:38:52.684Z,29.83
2019-04-06T11:41:38.391Z,26.63
2019-04-06T11:44:14.750Z,21.80
2019-04-06T11:46:48.245Z,38.00
2019-04-06T11:49:25.279Z,25.00
2019-04-06T11:52:10.765Z,30.87
2019-04-06T11:54:50.964Z,26.70
2019-04-06T11:57:40.033Z,27.73
2019-04-06T12:00:26.594Z,30.23
2019-04-06T12:03:13.561Z,28.97
2019-04-06T12:05:58.320Z,28.60
2019-04-06T12:08:49.386Z,27.60
2019-04-06T12:11:22.785Z,24.23
2019-04-06T12:14:13.367Z,29.70
2019-04-06T12:16:46.899Z,26.27
2019-04-06T12:19:27.412Z,24.70
2019-04-06T12:22:04.955Z,29.27
2019-04-06T12:24:55.691Z,22.97
2019-04-06T12:27:40.492Z,37.63
2019-04-06T12:30:38.218Z,21.23
2019-04-06T12:33:26.895Z,21.30
2019-04-06T12:36:08.360Z,28.47
2019-04-06T12:38:59.519Z,27.07
2019-04-06T12:41:39.678Z,26.23
2019-04-06T12:44:20.350Z,17.57
2019-04-06T12:46:58.000Z,19.87
2019-04-06T12:49:40.197Z,41.17
2019-04-06T12:52:12.660Z,21.90
2019-04-06T12:54:59.257Z,22.97
2019-04-06T12:57:47.643Z,26.90
2019-04-06T13:00:29.756Z,26.83
2019-04-06T13:03:21.879Z,22.83
2019-04-06T13:06:00.209Z,18.73
2019-04-06T13:08:35.460Z,24.10
2019-04-06T13:11:08.953Z,20.17
2019-04-06T13:14:02.489Z,19.53
2019-04-06T13:16:35.848Z,16.30
2019-04-06T13:19:12.263Z,19.63
2019-04-06T13:21:55.844Z,20.40
2019-04-06T13:24:50.927Z,21.23
2019-04-06T13:27:29.903Z,20.43
2019-04-06T13:30:08.123Z,23.30
2019-04-06T13:32:41.485Z,27.60
2019-04-06T13:35:15.016Z,23.67
2019-04-06T13:37:50.214Z,21.07
2019-04-06T13:40:41.614Z,19.60
2019-04-06T13:43:24.280Z,22.50
2019-04-06T13:46:01.519Z,17.60
2019-04-06T13:48:41.060Z,29.77
2019-04-06T13:51:21.089Z,24.57
2019-04-06T13:53:55.682Z,22.33
2019-04-06T13:56:53.227Z,26.53
2019-04-06T13:59:35.421Z,55.27
2019-04-06T14:02:21.945Z,28.73
2019-04-06T14:05:14.943Z,33.60
2019-04-06T14:07:51.434Z,29.47
2019-04-06T14:10:33.726Z,30.17
2019-04-06T14:13:30.478Z,23.97
2019-04-06T14:16:29.859Z,21.93
2019-04-06T14:19:32.594Z,20.73
2019-04-06T14:22:14.593Z,24.73
2019-04-06T14:24:49.401Z,35.87
2019-04-06T14:27:42.421Z,190.33
2019-04-06T14:30:31.078Z,30.80
2019-04-06T14:33:21.008Z,27.50
2019-04-06T14:36:10.698Z,25.80
2019-04-06T14:38:52.062Z,24.53
2019-04-06T14:41:30.936Z,31.43
2019-04-06T14:44:28.987Z,23.47
2019-04-06T14:47:03.709Z,20.73
2019-04-06T14:49:56.694Z,34.17
2019-04-06T14:52:44.296Z,22.43
2019-04-06T14:55:33.556Z,25.43
2019-04-06T14:58:31.996Z,75.90
2019-04-06T15:01:08.442Z,44.73
2019-04-06T15:03:47.972Z,102.97
2019-04-06T15:06:32.512Z,24.13
2019-04-06T15:09:11.304Z,23.03
2019-04-06T15:12:11.300Z,24.80
2019-04-06T15:14:50.952Z,24.00
2019-04-06T15:17:42.620Z,26.57
2019-04-06T15:20:19.381Z,21.30
2019-04-06T15:23:17.369Z,22.53
2019-04-06T15:26:11.298Z,23.77
2019-04-06T15:29:02.258Z,25.07
2019-04-06T15:31:49.906Z,19.07
2019-04-06T15:34:29.341Z,20.27
2019-04-06T15:37:10.936Z,23.30
2019-04-06T15:39:48.220Z,24.20
2019-04-06T15:42:21.786Z,27.83
2019-04-06T15:45:14.959Z,33.37
2019-04-06T15:48:07.233Z,34.23
2019-04-06T15:50:40.566Z,45.50
2019-04-06T15:53:19.501Z,36.90
2019-04-06T15:55:57.093Z,26.87
2019-04-06T15:58:34.358Z,29.00
2019-04-06T16:01:33.142Z,31.37
2019-04-06T16:04:08.963Z,28.17
2019-04-06T16:06:49.612Z,37.97
2019-04-06T16:09:41.553Z,57.50
2019-04-06T16:12:23.841Z,35.00
2019-04-06T16:15:16.130Z,26.07
2019-04-06T16:18:11.727Z,30.77
2019-04-06T16:21:05.704Z,35.40
2019-04-06T16:24:02.172Z,31.13
2019-04-06T16:26:40.637Z,30.37
2019-04-06T16:29:31.845Z,28.93
2019-04-06T16:32:11.733Z,37.67
2019-04-06T16:34:44.587Z,28.90
2019-04-06T16:37:34.367Z,21.53
2019-04-06T16:40:11.873Z,25.57
2019-04-06T16:43:05.464Z,35.03
2019-04-06T16:45:45.421Z,24.10
2019-04-06T16:48:13.988Z,28.27
2019-04-06T16:51:05.064Z,26.63
2019-04-06T16:53:50.614Z,32.20
2019-04-06T16:56:30.175Z,36.70
2019-04-06T16:59:13.985Z,47.43
2019-04-06T17:02:06.344Z,40.50
2019-04-06T17:04:48.493Z,36.53
2019-04-06T17:07:31.212Z,34.20
2019-04-06T17:10:13.870Z,52.77
2019-04-06T17:12:47.291Z,41.47
2019-04-06T17:15:26.786Z,48.73
2019-04-06T17:18:07.011Z,35.13
2019-04-06T17:20:58.899Z,34.30
2019-04-06T17:23:41.371Z,31.80
2019-04-06T17:26:15.285Z,34.90
2019-04-06T17:28:58.947Z,44.77
2019-04-06T17:31:33.696Z,59.60
2019-04-06T17:34:16.559Z,55.57
2019-04-06T17:37:05.342Z,54.10
2019-04-06T17:39:47.682Z,49.77
2019-04-06T17:42:24.620Z,50.03
2019-04-06T17:45:00.260Z,38.83
2019-04-06T17:47:52.289Z,41.63
2019-04-06T17:50:42.216Z,40.77
2019-04-06T17:53:16.874Z,29.57
2019-04-06T17:56:09.232Z,38.17
2019-04-06T17:58:52.528Z,39.37
2019-04-06T18:01:42.492Z,35.17
2019-04-06T18:04:26.188Z,34.73
2019-04-06T18:07:25.384Z,41.90
2019-04-06T18:10:13.681Z,40.00
2019-04-06T18:12:48.839Z,37.27
2019-04-06T18:15:20.495Z,29.80
2019-04-06T18:18:03.849Z,98.40
2019-04-06T18:20:38.252Z,282.43
2019-04-06T18:23:14.621Z,257.30
2019-04-06T18:25:52.295Z,193.93
2019-04-06T18:28:27.346Z,182.03
2019-04-06T18:31:18.399Z,277.47
2019-04-06T18:33:51.951Z,174.53
2019-04-06T18:36:27.621Z,117.43
2019-04-06T18:39:01.725Z,129.13
2019-04-06T18:41:36.813Z,73.37
2019-04-06T18:44:09.774Z,37.10
2019-04-06T18:46:42.718Z,43.63
2019-04-06T18:49:17.285Z,28.27
2019-04-06T18:51:50.237Z,28.60
2019-04-06T18:54:22.202Z,26.70
2019-04-06T18:56:54.167Z,22.70
2019-04-06T18:59:26.153Z,38.63
2019-04-06T19:01:59.567Z,27.73
2019-04-06T19:04:33.944Z,26.67
2019-04-06T19:07:07.034Z,22.87
2019-04-06T19:09:39.581Z,27.37
2019-04-06T19:12:11.255Z,29.03
2019-04-06T19:14:44.359Z,29.10
2019-04-06T19:17:23.624Z,27.17
2019-04-06T19:19:53.993Z,22.50
2019-04-06T19:22:26.141Z,27.20
2019-04-06T19:25:01.865Z,24.03
2019-04-06T19:27:34.070Z,28.20
2019-04-06T19:30:11.059Z,29.17
2019-04-06T19:32:48.298Z,26.77
2019-04-06T19:35:22.391Z,34.37
2019-04-06T19:38:09.687Z,30.60
2019-04-06T19:40:42.770Z,27.70
2019-04-06T19:43:17.317Z,27.43
2019-04-06T19:45:49.701Z,25.27
2019-04-06T19:48:21.454Z,28.83
2019-04-06T19:50:53.269Z,26.90
2019-04-06T19:53:26.946Z,34.13
2019-04-06T19:55:58.572Z,34.80
2019-04-06T19:58:30.740Z,28.87
2019-04-06T20:01:03.141Z,22.97
2019-04-06T20:03:37.996Z,30.60
2019-04-06T20:06:08.862Z,28.20
2019-04-06T20:08:41.182Z,23.90
2019-04-06T20:11:12.793Z,30.13
2019-04-06T20:13:50.439Z,29.03
2019-04-06T20:16:22.889Z,39.47
2019-04-06T20:18:56.523Z,32.53
2019-04-06T20:21:31.812Z,32.10
2019-04-06T20:24:06.121Z,33.03
2019-04-06T20:26:38.402Z,26.23
2019-04-06T20:29:12.656Z,30.83
2019-04-06T20:31:49.735Z,29.47
2019-04-06T20:34:25.485Z,33.20
2019-04-06T20:37:01.875Z,35.53
2019-04-06T20:39:34.741Z,39.70
2019-04-06T20:42:06.603Z,31.53
2019-04-06T20:44:38.271Z,31.37
2019-04-06T20:47:11.530Z,28.87
2019-04-06T20:49:43.559Z,36.33
2019-04-06T20:52:19.842Z,26.93
2019-04-06T20:54:54.853Z,32.30
2019-04-06T20:57:26.546Z,33.70
2019-04-06T20:59:59.965Z,38.03
2019-04-06T21:02:32.998Z,38.70
2019-04-06T21:05:09.874Z,44.07
2019-04-06T21:07:42.051Z,34.03
2019-04-06T21:10:15.501Z,37.30
2019-04-06T21:12:47.606Z,34.63
2019-04-06T21:15:21.383Z,33.40
2019-04-06T21:17:56.480Z,35.40
2019-04-06T21:20:28.952Z,38.70
2019-04-06T21:23:02.865Z,33.97
2019-04-06T21:25:38.642Z,38.53
2019-04-06T21:28:19.828Z,32.20
2019-04-06T21:30:59.726Z,37.27
2019-04-06T21:33:34.166Z,34.47
2019-04-06T21:36:07.565Z,30.60
2019-04-06T21:38:41.145Z,32.33
2019-04-06T21:41:14.066Z,33.43
2019-04-06T21:43:46.033Z,40.47
2019-04-06T21:46:17.870Z,35.53
2019-04-06T21:48:50.574Z,37.03
2019-04-06T21:51:25.270Z,48.90
2019-04-06T21:53:57.518Z,40.43
2019-04-06T21:56:30.561Z,34.83
2019-04-06T21:59:04.330Z,37.27
2019-04-06T22:01:38.340Z,42.40
2019-04-06T22:04:22.605Z,46.03
2019-04-06T22:06:43.344Z,49.20
2019-04-06T22:09:16.481Z,49.77
2019-04-06T22:11:48.373Z,47.90
2019-04-06T22:14:20.215Z,46.43
2019-04-06T22:16:52.796Z,44.83
2019-04-06T22:19:25.255Z,46.60
2019-04-06T22:21:58.672Z,45.20
2019-04-06T22:24:31.740Z,44.80
2019-04-06T22:27:08.340Z,39.47
2019-04-06T22:29:40.669Z,44.60
2019-04-06T22:32:14.067Z,44.50
2019-04-06T22:34:47.582Z,61.53
2019-04-06T22:37:20.669Z,47.80
2019-04-06T22:39:53.668Z,49.50
2019-04-06T22:42:25.425Z,43.53
2019-04-06T22:44:57.736Z,51.63
2019-04-06T22:47:31.336Z,47.73
2019-04-06T22:50:06.076Z,50.37
2019-04-06T22:52:38.902Z,47.50
2019-04-06T22:55:11.621Z,49.90
2019-04-06T22:57:43.383Z,48.50
2019-04-06T23:00:27.132Z,39.13
2019-04-06T23:02:58.879Z,42.73
2019-04-06T23:05:41.598Z,46.40
2019-04-06T23:08:13.414Z,49.23
2019-04-06T23:10:46.606Z,43.30
2019-04-06T23:13:20.277Z,45.87
2019-04-06T23:15:53.308Z,44.07
2019-04-06T23:18:26.009Z,44.57
2019-04-06T23:20:57.747Z,34.97
2019-04-06T23:23:29.481Z,45.00
2019-04-06T23:26:02.699Z,42.00
2019-04-06T23:28:34.557Z,43.83
2019-04-06T23:31:06.484Z,39.17
2019-04-06T23:33:39.658Z,43.40
2019-04-06T23:36:13.518Z,47.57
2019-04-06T23:38:46.495Z,54.87
2019-04-06T23:41:21.807Z,47.27
2019-04-06T23:43:56.339Z,41.20
2019-04-06T23:46:29.147Z,50.70
2019-04-06T23:49:03.686Z,50.73
2019-04-06T23:51:35.885Z,48.33
2019-04-06T23:54:08.801Z,37.67
2019-04-06T23:56:41.714Z,45.67
2019-04-06T23:59:15.069Z,39.77
